createdAt,value
2019-02-14T00:00:27.125Z,17.80
2019-02-14T00:02:43.511Z,18.77
2019-02-14T00:04:59.284Z,15.93
2019-02-14T00:07:15.829Z,15.50
2019-02-14T00:09:32.583Z,16.90
2019-02-14T00:11:49.163Z,13.80
2019-02-14T00:14:04.860Z,17.00
2019-02-14T00:16:20.579Z,17.92
2019-02-14T00:18:36.132Z,13.30
2019-02-14T00:20:53.283Z,19.02
2019-02-14T00:23:09.129Z,17.30
2019-02-14T00:25:24.860Z,15.60
2019-02-14T00:27:41.501Z,19.50
2019-02-14T00:29:58.163Z,16.65
2019-02-14T00:32:14.751Z,15.77
2019-02-14T00:34:31.524Z,15.60
2019-02-14T00:36:47.863Z,16.83
2019-02-14T00:39:04.662Z,17.23
2019-02-14T00:41:21.278Z,17.27
2019-02-14T00:43:37.016Z,17.82
2019-02-14T00:45:52.647Z,17.63
2019-02-14T00:48:09.148Z,17.17
2019-02-14T00:50:26.022Z,19.73
2019-02-14T00:52:42.334Z,20.13
2019-02-14T00:54:58.300Z,18.70
2019-02-14T00:57:14.829Z,19.85
2019-02-14T00:59:31.051Z,17.87
2019-02-14T01:01:46.847Z,19.80
2019-02-14T01:04:03.268Z,20.70
2019-02-14T01:06:19.364Z,20.13
2019-02-14T01:08:35.437Z,19.63
2019-02-14T01:10:51.364Z,18.90
2019-02-14T01:13:08.042Z,19.37
2019-02-14T01:15:26.096Z,21.30
2019-02-14T01:17:42.188Z,22.13
2019-02-14T01:19:58.660Z,21.93
2019-02-14T01:22:14.689Z,18.47
2019-02-14T01:24:30.600Z,20.90
2019-02-14T01:26:47.955Z,20.80
2019-02-14T01:29:04.060Z,20.80
2019-02-14T01:31:20.742Z,21.13
2019-02-14T01:33:36.960Z,23.70
2019-02-14T01:35:54.041Z,19.13
2019-02-14T01:38:10.806Z,20.20
2019-02-14T01:40:27.539Z,21.90
2019-02-14T01:42:44.134Z,22.53
2019-02-14T01:45:00.295Z,23.20
2019-02-14T01:47:16.743Z,17.90
2019-02-14T01:49:31.868Z,20.50
2019-02-14T01:51:56.018Z,21.85
2019-02-14T01:59:32.227Z,23.10
2019-02-14T02:01:55.708Z,23.45
2019-02-14T02:04:20.176Z,21.80
2019-02-14T02:06:44.147Z,22.63
2019-02-14T02:09:08.017Z,22.60
2019-02-14T02:11:31.979Z,19.37
2019-02-14T02:16:24.560Z,21.60
2019-02-14T02:19:07.620Z,21.40
2019-02-14T02:21:30.981Z,23.47
2019-02-14T02:23:54.823Z,23.73
2019-02-14T02:26:18.659Z,24.67
2019-02-14T02:31:26.647Z,25.43
2019-02-14T02:36:20.838Z,26.70
2019-02-14T02:38:36.707Z,24.87
2019-02-14T02:40:53.247Z,23.70
2019-02-14T02:43:08.970Z,25.97
2019-02-14T02:45:25.211Z,25.32
2019-02-14T02:47:42.072Z,24.47
2019-02-14T02:49:57.950Z,22.05
2019-02-14T02:52:14.815Z,25.47
2019-02-14T02:54:31.132Z,25.93
2019-02-14T02:56:47.311Z,24.07
2019-02-14T02:59:03.483Z,23.70
2019-02-14T03:01:19.483Z,24.20
2019-02-14T03:03:35.117Z,22.17
2019-02-14T03:05:51.655Z,24.93
2019-02-14T03:08:07.612Z,26.23
2019-02-14T03:10:23.524Z,26.13
2019-02-14T03:12:40.383Z,22.77
2019-02-14T03:14:57.108Z,25.60
2019-02-14T03:17:13.417Z,26.27
2019-02-14T03:19:29.851Z,25.80
2019-02-14T03:21:46.303Z,26.57
2019-02-14T03:24:02.432Z,25.97
2019-02-14T03:26:18.966Z,26.30
2019-02-14T03:28:35.974Z,26.20
2019-02-14T03:30:52.229Z,22.47
2019-02-14T03:33:08.186Z,25.87
2019-02-14T03:35:24.253Z,25.60
2019-02-14T03:37:40.563Z,25.70
2019-02-14T03:39:56.369Z,26.30
2019-02-14T03:42:13.067Z,25.45
2019-02-14T03:44:29.866Z,23.37
2019-02-14T03:46:46.343Z,27.60
2019-02-14T03:49:03.278Z,25.67
2019-02-14T03:51:19.905Z,27.70
2019-02-14T03:53:35.928Z,25.92
2019-02-14T03:55:52.575Z,24.50
2019-02-14T03:58:08.773Z,26.50
2019-02-14T04:00:25.235Z,24.23
2019-02-14T04:02:41.361Z,25.43
2019-02-14T04:04:57.277Z,26.20
2019-02-14T04:07:13.571Z,27.10
2019-02-14T04:09:29.852Z,23.73
2019-02-14T04:11:46.464Z,26.35
2019-02-14T04:14:02.671Z,24.50
2019-02-14T04:16:18.864Z,25.90
2019-02-14T04:18:35.185Z,27.13
2019-02-14T04:20:51.531Z,28.60
2019-02-14T04:23:07.495Z,26.23
2019-02-14T04:25:23.647Z,28.93
2019-02-14T04:27:39.597Z,26.37
2019-02-14T04:29:56.319Z,27.60
2019-02-14T04:32:12.955Z,28.90
2019-02-14T04:34:29.303Z,24.17
2019-02-14T04:36:45.708Z,23.20
2019-02-14T04:39:02.340Z,25.80
2019-02-14T04:41:18.778Z,24.70
2019-02-14T04:43:34.948Z,27.20
2019-02-14T04:45:51.701Z,29.07
2019-02-14T04:48:07.252Z,27.03
2019-02-14T04:50:24.019Z,25.00
2019-02-14T04:52:40.417Z,26.97
2019-02-14T04:54:57.327Z,27.25
2019-02-14T04:57:13.435Z,28.60
2019-02-14T04:59:29.677Z,27.13
2019-02-14T05:01:45.193Z,27.70
2019-02-14T05:04:02.158Z,27.60
2019-02-14T05:06:18.900Z,29.65
2019-02-14T05:08:35.125Z,27.77
2019-02-14T05:10:50.561Z,29.37
2019-02-14T05:13:07.276Z,27.62
2019-02-14T05:15:23.342Z,29.30
2019-02-14T05:17:39.566Z,29.57
2019-02-14T05:19:55.814Z,27.83
2019-02-14T05:22:12.033Z,27.47
2019-02-14T05:24:27.861Z,26.95
2019-02-14T05:26:44.051Z,25.53
2019-02-14T05:28:59.701Z,28.10
2019-02-14T05:31:16.143Z,29.47
2019-02-14T05:33:32.995Z,29.77
2019-02-14T05:35:47.976Z,29.15
2019-02-14T05:38:23.405Z,28.12
2019-02-14T05:40:56.323Z,28.80
2019-02-14T05:43:19.589Z,26.33
2019-02-14T05:45:42.930Z,25.23
2019-02-14T05:48:06.293Z,28.07
2019-02-14T05:55:29.749Z,28.17
2019-02-14T05:57:53.265Z,28.53
2019-02-14T06:03:01.160Z,27.80
2019-02-14T06:05:24.775Z,34.40
2019-02-14T06:07:49.123Z,26.90
2019-02-14T06:10:12.592Z,28.37
2019-02-14T06:12:35.824Z,27.57
2019-02-14T06:15:11.046Z,27.83
2019-02-14T06:19:58.204Z,26.60
2019-02-14T06:22:22.401Z,29.70
2019-02-14T06:24:38.878Z,30.40
2019-02-14T06:26:55.196Z,28.70
2019-02-14T06:29:11.048Z,28.40
2019-02-14T06:34:45.513Z,28.50
2019-02-14T06:37:09.449Z,29.00
2019-02-14T06:39:19.696Z,28.10
2019-02-14T06:41:36.098Z,28.40
2019-02-14T06:43:52.144Z,29.53
2019-02-14T06:46:08.097Z,28.30
2019-02-14T06:48:24.313Z,29.40
2019-02-14T06:50:40.392Z,30.27
2019-02-14T06:52:56.413Z,28.73
2019-02-14T06:55:13.459Z,29.23
2019-02-14T06:57:29.519Z,27.45
2019-02-14T06:59:46.013Z,28.83
2019-02-14T07:02:01.785Z,29.33
2019-02-14T07:04:18.152Z,29.12
2019-02-14T07:06:34.036Z,30.10
2019-02-14T07:08:49.947Z,29.32
2019-02-14T07:11:06.093Z,30.43
2019-02-14T07:13:22.030Z,30.37
2019-02-14T07:15:38.236Z,29.80
2019-02-14T07:17:54.420Z,30.70
2019-02-14T07:20:10.178Z,27.60
2019-02-14T07:22:26.004Z,29.20
2019-02-14T07:24:41.840Z,29.37
2019-02-14T07:26:58.413Z,29.30
2019-02-14T07:29:15.019Z,28.60
2019-02-14T07:31:30.940Z,28.07
2019-02-14T07:33:47.351Z,27.77
2019-02-14T07:36:03.756Z,30.10
2019-02-14T07:38:19.659Z,29.95
2019-02-14T07:40:35.439Z,30.80
2019-02-14T07:42:52.131Z,29.70
2019-02-14T07:45:08.057Z,28.87
2019-02-14T07:47:24.235Z,28.43
2019-02-14T07:49:40.148Z,25.90
2019-02-14T07:51:56.134Z,28.47
2019-02-14T07:54:12.387Z,28.67
2019-02-14T07:56:28.588Z,27.30
2019-02-14T07:58:45.146Z,29.30
2019-02-14T08:01:01.373Z,29.85
2019-02-14T08:03:17.483Z,28.12
2019-02-14T08:05:34.455Z,28.35
2019-02-14T08:07:50.583Z,27.40
2019-02-14T08:10:06.777Z,28.33
2019-02-14T08:12:23.511Z,27.70
2019-02-14T08:14:40.304Z,29.00
2019-02-14T08:16:56.697Z,27.40
2019-02-14T08:19:13.597Z,25.60
2019-02-14T08:21:29.503Z,28.38
2019-02-14T08:23:45.450Z,28.43
2019-02-14T08:26:10.374Z,28.43
2019-02-14T08:28:19.442Z,29.70
2019-02-14T08:30:35.667Z,27.20
2019-02-14T08:32:52.463Z,28.50
2019-02-14T08:35:08.344Z,28.55
2019-02-14T08:37:24.452Z,28.93
2019-02-14T08:39:39.972Z,26.27
2019-02-14T08:41:56.412Z,28.02
2019-02-14T08:44:12.035Z,26.67
2019-02-14T08:46:28.133Z,26.43
2019-02-14T08:48:44.291Z,29.23
2019-02-14T08:50:59.676Z,24.60
2019-02-14T08:53:16.104Z,25.93
2019-02-14T08:55:32.474Z,25.33
2019-02-14T08:57:49.024Z,27.10
2019-02-14T09:00:05.508Z,23.38
2019-02-14T09:02:21.931Z,21.97
2019-02-14T09:04:37.526Z,27.63
2019-02-14T09:06:53.778Z,27.10
2019-02-14T09:09:10.105Z,24.93
2019-02-14T09:11:26.851Z,26.10
2019-02-14T09:13:42.341Z,27.43
2019-02-14T09:15:58.599Z,22.70
2019-02-14T09:18:14.628Z,26.23
2019-02-14T09:20:31.511Z,25.23
2019-02-14T09:22:47.655Z,27.80
2019-02-14T09:25:03.964Z,26.02
2019-02-14T09:27:19.768Z,27.93
2019-02-14T09:29:35.489Z,25.77
2019-02-14T09:31:52.315Z,25.53
2019-02-14T09:34:08.554Z,27.05
2019-02-14T09:36:24.985Z,26.73
2019-02-14T09:38:41.427Z,27.80
2019-02-14T09:40:57.428Z,24.37
2019-02-14T09:43:13.917Z,25.20
2019-02-14T09:45:30.400Z,24.37
2019-02-14T09:47:46.502Z,27.10
2019-02-14T09:50:02.889Z,27.63
2019-02-14T09:52:18.575Z,26.70
2019-02-14T09:54:35.287Z,28.07
2019-02-14T09:56:52.325Z,27.07
2019-02-14T09:59:09.293Z,19.60
2019-02-14T10:01:25.977Z,18.35
2019-02-14T10:03:42.496Z,22.83
2019-02-14T10:05:58.567Z,23.77
2019-02-14T10:08:14.343Z,23.30
2019-02-14T10:10:29.986Z,25.60
2019-02-14T10:12:45.992Z,23.17
2019-02-14T10:15:02.871Z,22.37
2019-02-14T10:17:22.317Z,21.90
2019-02-14T10:19:37.401Z,22.17
2019-02-14T10:21:53.489Z,24.00
2019-02-14T10:24:09.411Z,22.30
2019-02-14T10:26:25.586Z,23.00
2019-02-14T10:28:42.575Z,22.33
2019-02-14T10:30:58.900Z,20.20
2019-02-14T10:48:49.338Z,24.50
2019-02-14T12:00:20.922Z,14.37
2019-02-14T12:02:37.942Z,20.23
2019-02-14T12:04:54.441Z,16.33
2019-02-14T12:07:10.463Z,16.90
2019-02-14T12:09:27.120Z,15.03
2019-02-14T12:11:43.416Z,16.40
2019-02-14T12:14:00.182Z,19.60
2019-02-14T12:16:16.113Z,19.50
2019-02-14T12:18:32.764Z,15.83
2019-02-14T12:20:48.566Z,15.98
2019-02-14T12:23:05.603Z,13.90
2019-02-14T12:25:21.533Z,14.10
2019-02-14T12:27:36.995Z,14.90
2019-02-14T12:29:52.304Z,9.07
2019-02-14T12:32:07.040Z,11.93
2019-02-14T12:34:30.878Z,8.40
2019-02-14T12:39:37.952Z,12.90
2019-02-14T12:44:48.203Z,11.07
2019-02-14T12:47:11.271Z,10.73
2019-02-14T12:52:18.972Z,12.40
2019-02-14T12:54:42.044Z,8.47
2019-02-14T12:57:05.199Z,12.00
2019-02-14T12:59:29.224Z,10.73
2019-02-14T13:01:52.750Z,10.20
2019-02-14T13:09:53.269Z,11.53
2019-02-14T13:12:16.935Z,10.23
2019-02-14T13:14:41.311Z,10.38
2019-02-14T13:17:04.376Z,8.50
2019-02-14T13:19:27.743Z,8.70
2019-02-14T13:26:51.097Z,11.37
2019-02-14T13:34:22.004Z,11.20
2019-02-14T13:36:37.966Z,10.40
2019-02-14T13:38:53.982Z,11.33
2019-02-14T13:41:10.352Z,8.40
2019-02-14T13:43:25.739Z,7.77
2019-02-14T13:45:39.912Z,7.70
2019-02-14T13:48:22.564Z,6.53
2019-02-14T13:53:20.568Z,8.90
2019-02-14T13:55:44.383Z,8.00
2019-02-14T13:58:07.455Z,8.20
2019-02-14T14:03:01.191Z,6.50
2019-02-14T14:08:07.495Z,8.10
2019-02-14T14:10:30.559Z,7.67
2019-02-14T14:12:54.304Z,7.90
2019-02-14T14:15:18.013Z,8.27
2019-02-14T14:18:01.247Z,8.38
2019-02-14T14:20:24.854Z,7.80
2019-02-14T14:22:48.639Z,8.50
2019-02-14T14:25:12.163Z,8.23
2019-02-14T14:27:36.155Z,8.63
2019-02-14T14:30:00.372Z,7.90
2019-02-14T14:32:16.611Z,8.53
2019-02-14T14:34:32.414Z,8.10
2019-02-14T14:36:47.854Z,8.40
2019-02-14T14:39:04.703Z,8.60
2019-02-14T14:41:21.138Z,7.42
2019-02-14T14:43:56.442Z,6.33
2019-02-14T14:48:44.351Z,6.73
2019-02-14T14:51:01.032Z,7.93
2019-02-14T14:53:16.888Z,7.97
2019-02-14T14:55:32.719Z,8.67
2019-02-14T14:57:48.345Z,6.20
2019-02-14T15:00:04.455Z,7.80
2019-02-14T15:02:20.341Z,7.37
2019-02-14T15:04:36.291Z,8.63
2019-02-14T15:06:53.728Z,8.30
2019-02-14T15:09:09.594Z,8.47
2019-02-14T15:11:25.430Z,5.23
2019-02-14T15:13:41.744Z,6.57
2019-02-14T15:15:57.674Z,6.57
2019-02-14T15:18:13.968Z,7.47
2019-02-14T15:20:29.459Z,9.50
2019-02-14T15:22:45.487Z,7.30
2019-02-14T15:25:00.880Z,6.93
2019-02-14T15:27:16.503Z,7.40
2019-02-14T15:29:32.149Z,7.50
2019-02-14T15:31:48.203Z,7.10
2019-02-14T15:34:04.147Z,6.90
2019-02-14T15:36:21.633Z,6.33
2019-02-14T15:38:37.608Z,8.60
2019-02-14T15:40:53.239Z,7.30
2019-02-14T15:43:09.444Z,7.60
2019-02-14T15:45:24.871Z,8.00
2019-02-14T15:47:40.257Z,6.30
2019-02-14T15:49:56.731Z,6.27
2019-02-14T15:52:13.175Z,8.60
2019-02-14T15:54:30.943Z,7.37
2019-02-14T15:56:46.859Z,7.37
2019-02-14T15:59:02.523Z,7.60
2019-02-14T16:01:19.102Z,5.07
2019-02-14T16:03:35.568Z,7.27
2019-02-14T16:05:51.187Z,8.03
2019-02-14T16:08:06.718Z,8.10
2019-02-14T16:10:22.687Z,7.57
2019-02-14T16:12:38.763Z,7.60
2019-02-14T16:14:54.164Z,5.53
2019-02-14T16:17:13.126Z,7.70
2019-02-14T16:19:27.983Z,10.10
2019-02-14T16:21:43.893Z,8.00
2019-02-14T16:24:00.322Z,8.27
2019-02-14T16:26:17.110Z,7.23
2019-02-14T16:28:33.221Z,9.53
2019-02-14T16:30:48.924Z,9.10
2019-02-14T16:33:05.243Z,7.27
2019-02-14T16:35:22.036Z,6.10
2019-02-14T16:37:37.405Z,8.40
2019-02-14T16:39:54.667Z,8.30
2019-02-14T16:42:11.358Z,10.53
2019-02-14T16:44:27.035Z,11.10
2019-02-14T16:46:43.378Z,8.77
2019-02-14T16:49:00.118Z,8.60
2019-02-14T16:51:16.031Z,8.63
2019-02-14T16:53:32.730Z,8.30
2019-02-14T16:55:48.649Z,8.87
2019-02-14T16:58:03.619Z,7.17
2019-02-14T17:00:26.891Z,10.03
2019-02-14T17:02:49.951Z,5.10
2019-02-14T17:05:13.541Z,7.07
2019-02-14T17:07:36.666Z,10.57
2019-02-14T17:15:13.268Z,8.07
2019-02-14T17:17:36.632Z,7.73
2019-02-14T17:20:00.456Z,7.87
2019-02-14T17:22:24.100Z,8.73
2019-02-14T17:24:47.449Z,9.20
2019-02-14T17:29:40.592Z,8.97
2019-02-14T17:32:03.974Z,8.80
2019-02-14T17:34:27.068Z,8.00
2019-02-14T17:37:09.768Z,8.97
2019-02-14T17:39:25.205Z,9.37
2019-02-14T17:41:41.929Z,8.50
2019-02-14T17:43:57.719Z,9.73
2019-02-14T17:46:13.291Z,7.20
2019-02-14T17:48:29.546Z,8.70
2019-02-14T17:50:46.352Z,8.43
2019-02-14T17:53:02.322Z,8.33
2019-02-14T17:55:18.907Z,8.40
2019-02-14T17:57:34.788Z,10.72
2019-02-14T17:59:50.611Z,9.73
2019-02-14T18:02:06.746Z,9.10
2019-02-14T18:04:22.383Z,9.07
2019-02-14T18:06:38.682Z,7.60
2019-02-14T18:08:53.983Z,8.53
2019-02-14T18:11:10.253Z,9.33
2019-02-14T18:13:26.635Z,8.87
2019-02-14T18:15:42.411Z,8.27
2019-02-14T18:17:59.403Z,11.87
2019-02-14T18:20:15.759Z,12.07
2019-02-14T18:22:31.959Z,12.00
2019-02-14T18:24:48.748Z,11.10
2019-02-14T18:27:05.230Z,12.15
2019-02-14T18:29:22.091Z,11.90
2019-02-14T18:31:37.810Z,12.70
2019-02-14T18:33:54.560Z,11.87
2019-02-14T18:36:10.460Z,11.33
2019-02-14T18:38:26.965Z,11.33
2019-02-14T18:40:43.941Z,11.53
2019-02-14T18:43:00.572Z,11.30
2019-02-14T18:45:17.163Z,11.27
2019-02-14T18:47:39.444Z,11.57
2019-02-14T18:49:51.965Z,11.10
2019-02-14T18:52:08.701Z,11.50
2019-02-14T18:54:25.033Z,11.10
2019-02-14T18:56:40.998Z,12.23
2019-02-14T18:58:56.991Z,11.83
2019-02-14T19:01:13.535Z,12.10
2019-02-14T19:03:29.811Z,11.90
2019-02-14T19:05:45.819Z,11.50
2019-02-14T19:08:02.049Z,11.70
2019-02-14T19:10:18.496Z,12.10
2019-02-14T19:12:34.858Z,11.70
2019-02-14T19:14:50.532Z,11.60
2019-02-14T19:17:06.851Z,12.00
2019-02-14T19:19:24.209Z,11.73
2019-02-14T19:21:40.449Z,11.70
2019-02-14T19:23:57.005Z,11.97
2019-02-14T19:26:12.859Z,12.30
2019-02-14T19:28:29.140Z,12.10
2019-02-14T19:30:43.751Z,12.97
2019-02-14T19:37:59.459Z,12.30
2019-02-14T19:40:15.892Z,12.03
2019-02-14T19:42:31.715Z,12.13
2019-02-14T19:44:47.653Z,11.23
2019-02-14T19:47:04.200Z,11.90
2019-02-14T19:51:37.543Z,12.73
2019-02-14T19:53:53.881Z,13.00
2019-02-14T19:56:10.753Z,13.75
2019-02-14T19:58:27.148Z,12.20
2019-02-14T20:03:01.799Z,12.80
2019-02-14T20:05:18.075Z,13.40
2019-02-14T20:07:34.112Z,13.50
2019-02-14T20:09:50.967Z,12.67
2019-02-14T20:12:07.848Z,12.80
2019-02-14T20:14:24.412Z,13.20
2019-02-14T20:16:41.427Z,12.50
2019-02-14T20:18:57.681Z,12.63
2019-02-14T20:21:14.677Z,12.80
2019-02-14T20:23:30.923Z,12.80
2019-02-14T20:25:45.624Z,12.30
2019-02-14T20:28:09.172Z,12.73
2019-02-14T20:30:32.779Z,12.17
2019-02-14T20:33:04.380Z,12.07
2019-02-14T20:35:22.182Z,13.20
2019-02-14T20:37:39.083Z,12.50
2019-02-14T20:39:55.656Z,12.35
2019-02-14T20:42:11.364Z,11.97
2019-02-14T20:44:27.228Z,10.93
2019-02-14T20:46:43.253Z,11.60
2019-02-14T20:48:58.913Z,11.80
2019-02-14T20:51:14.740Z,11.90
2019-02-14T20:53:31.194Z,12.30
2019-02-14T20:55:47.332Z,11.63
2019-02-14T20:58:04.102Z,12.18
2019-02-14T21:00:24.993Z,12.10
2019-02-14T21:02:41.249Z,11.60
2019-02-14T21:04:57.146Z,12.90
2019-02-14T21:07:12.988Z,12.00
2019-02-14T21:09:28.907Z,11.53
2019-02-14T21:11:54.196Z,10.67
2019-02-14T21:14:04.103Z,11.48
2019-02-14T21:16:20.511Z,11.43
2019-02-14T21:18:36.765Z,11.73
2019-02-14T21:20:53.115Z,10.67
2019-02-14T21:23:09.471Z,10.58
2019-02-14T21:25:25.912Z,11.00
2019-02-14T21:27:41.987Z,10.03
2019-02-14T21:29:59.003Z,10.33
2019-02-14T21:32:14.761Z,10.55
2019-02-14T21:34:30.575Z,11.00
2019-02-14T21:36:47.148Z,10.47
2019-02-14T21:39:04.159Z,11.13
2019-02-14T21:41:20.180Z,11.10
2019-02-14T21:43:35.875Z,11.00
2019-02-14T21:45:52.029Z,10.90
2019-02-14T21:48:07.790Z,11.13
2019-02-14T21:50:23.325Z,11.47
2019-02-14T21:52:39.924Z,11.03
2019-02-14T21:54:55.784Z,10.00
2019-02-14T21:57:12.125Z,10.70
2019-02-14T21:59:27.951Z,10.40
2019-02-14T22:01:43.788Z,11.13
2019-02-14T22:03:59.602Z,10.17
2019-02-14T22:06:16.173Z,9.80
2019-02-14T22:08:33.056Z,10.05
2019-02-14T22:10:49.390Z,10.07
2019-02-14T22:13:05.445Z,10.40
2019-02-14T22:15:21.078Z,9.93
2019-02-14T22:17:37.729Z,9.73
2019-02-14T22:19:53.843Z,10.20
2019-02-14T22:22:09.851Z,9.73
2019-02-14T22:24:26.371Z,10.47
2019-02-14T22:26:42.940Z,9.90
2019-02-14T22:28:59.204Z,9.90
2019-02-14T22:31:15.860Z,10.30
2019-02-14T22:33:31.520Z,10.07
2019-02-14T22:35:47.115Z,9.40
2019-02-14T22:38:03.327Z,10.00
2019-02-14T22:40:19.134Z,10.20
2019-02-14T22:42:34.585Z,10.23
2019-02-14T22:44:51.087Z,9.80
2019-02-14T22:47:06.917Z,10.00
2019-02-14T22:49:23.191Z,9.30
2019-02-14T22:51:39.114Z,9.35
2019-02-14T22:53:55.412Z,9.90
2019-02-14T22:56:11.116Z,9.30
2019-02-14T22:58:27.352Z,10.00
2019-02-14T23:00:44.144Z,9.67
2019-02-14T23:03:00.051Z,9.77
2019-02-14T23:05:16.872Z,9.97
2019-02-14T23:07:32.901Z,9.30
2019-02-14T23:09:48.667Z,9.90
2019-02-14T23:12:05.399Z,9.30
2019-02-14T23:14:21.110Z,9.20
2019-02-14T23:16:37.092Z,9.20
2019-02-14T23:18:54.191Z,9.30
2019-02-14T23:21:08.579Z,9.40
2019-02-14T23:23:31.887Z,10.43
2019-02-14T23:25:55.811Z,9.80
2019-02-14T23:28:19.593Z,10.03
2019-02-14T23:30:42.659Z,11.17
2019-02-14T23:33:06.985Z,11.00
2019-02-14T23:35:30.847Z,10.93
2019-02-14T23:37:54.237Z,11.30
2019-02-14T23:40:17.555Z,10.80
2019-02-14T23:42:34.133Z,10.07
2019-02-14T23:44:50.522Z,9.98
2019-02-14T23:47:06.806Z,10.40
2019-02-14T23:49:23.602Z,10.50
2019-02-14T23:51:39.692Z,9.90
2019-02-14T23:53:55.372Z,9.60
2019-02-14T23:56:10.901Z,10.40
